Time;durP1;ratioP1;P1;durP2;ratioP2;P2;SDS_P1;SDS_P2;PMS_P1;PMS_P2;Temp;Humidity;BMP_temperature;BMP_pressure;BME280_temperature;BME280_humidity;BME280_pressure;Samples;Min_cycle;Max_cycle;Signal;HPM_P1;HPM_P2
2023/01/16 00:01:55;;;;;;;62.83;32.08;;;;;;;4.81;100.00;100467.41;5013310;28;20046;-76
2023/01/16 00:04:21;;;;;;;72.35;36.78;;;;;;;4.78;100.00;100437.88;5005322;28;20123;-77
2023/01/16 00:06:46;;;;;;;55.45;37.15;;;;;;;5.10;100.00;100450.72;5006852;28;20046;-77
2023/01/16 00:09:12;;;;;;;60.22;34.28;;;;;;;4.58;100.00;100373.28;5003479;28;20050;-77
2023/01/16 00:11:38;;;;;;;56.88;36.55;;;;;;;4.82;100.00;100401.59;5005414;28;20056;-78
2023/01/16 00:14:03;;;;;;;63.70;38.67;;;;;;;4.57;100.00;100459.91;5004700;28;20052;-77
2023/01/16 00:16:29;;;;;;;57.60;36.00;;;;;;;4.90;100.00;100460.69;5005189;28;20044;-78
2023/01/16 00:18:55;;;;;;;63.78;32.90;;;;;;;5.02;100.00;100466.16;5002929;28;20142;-76
2023/01/16 00:21:25;;;;;;;55.38;36.38;;;;;;;4.93;100.00;100466.81;5008281;28;20077;-77
2023/01/16 00:23:52;;;;;;;58.05;34.17;;;;;;;4.05;100.00;100422.22;5005113;28;20052;-76
2023/01/16 00:26:18;;;;;;;53.88;33.72;;;;;;;3.79;100.00;100320.25;5006240;28;20049;-75
2023/01/16 00:28:43;;;;;;;56.38;36.20;;;;;;;4.22;100.00;100357.72;5013775;28;20120;-76
2023/01/16 00:31:09;;;;;;;60.95;36.65;;;;;;;3.84;100.00;100329.06;5001542;28;20030;-77
2023/01/16 00:33:34;;;;;;;67.97;38.70;;;;;;;4.63;100.00;100431.44;5009912;28;20049;-76
2023/01/16 00:36:00;;;;;;;56.10;36.70;;;;;;;4.90;100.00;100456.34;5003487;28;20461;-76
2023/01/16 00:38:26;;;;;;;60.92;35.63;;;;;;;4.70;100.00;100448.06;5006094;28;20073;-77
2023/01/16 00:40:51;;;;;;;54.85;35.17;;;;;;;4.13;100.00;100342.78;5002967;28;20132;-76
2023/01/16 00:43:17;;;;;;;57.42;31.13;;;;;;;4.21;100.00;100345.56;5005100;28;20088;-76
2023/01/16 00:45:43;;;;;;;60.47;35.38;;;;;;;3.96;100.00;100326.78;5002668;28;20670;-76
2023/01/16 00:48:08;;;;;;;55.10;34.88;;;;;;;4.71;100.00;100457.63;4999225;28;20042;-78
2023/01/16 00:50:34;;;;;;;67.78;38.00;;;;;;;3.66;100.00;100339.84;5001474;28;20061;-75
2023/01/16 00:52:59;;;;;;;54.72;35.15;;;;;;;3.77;100.00;100340.13;5002926;28;20053;-76
2023/01/16 00:55:25;;;;;;;70.78;36.65;;;;;;;4.38;100.00;100432.59;5007263;28;20433;-77
2023/01/16 00:57:50;;;;;;;58.63;35.88;;;;;;;4.23;100.00;100417.47;5004838;28;20029;-76
2023/01/16 01:00:21;;;;;;;55.92;32.20;;;;;;;3.61;100.00;100301.66;5001945;28;20077;-77
2023/01/16 01:02:49;;;;;;;50.97;32.83;;;;;;;3.53;100.00;100280.66;5002672;28;20144;-78
2023/01/16 01:05:15;;;;;;;53.15;31.50;;;;;;;3.34;100.00;100275.00;5000893;28;22235;-76
2023/01/16 01:07:41;;;;;;;57.58;32.97;;;;;;;4.30;100.00;100415.03;5005804;28;20812;-77
2023/01/16 01:10:06;;;;;;;58.25;33.35;;;;;;;3.41;100.00;100285.53;5000758;28;20042;-75
2023/01/16 01:12:32;;;;;;;65.18;36.00;;;;;;;3.28;100.00;100267.06;4998333;28;20541;-76
2023/01/16 01:14:57;;;;;;;55.42;34.53;;;;;;;3.94;100.00;100403.72;5001287;28;20140;-76
2023/01/16 01:17:23;;;;;;;63.13;34.85;;;;;;;3.39;100.00;100267.34;4994558;28;20612;-79
2023/01/16 01:19:49;;;;;;;78.93;41.60;;;;;;;3.05;100.00;100263.84;4996430;28;20081;-78
2023/01/16 01:22:15;;;;;;;62.40;33.38;;;;;;;3.24;100.00;100256.56;5004348;28;20079;-76
2023/01/16 01:24:41;;;;;;;68.65;34.95;;;;;;;3.70;100.00;100393.59;4997615;28;20054;-76
2023/01/16 01:27:07;;;;;;;71.35;34.45;;;;;;;2.87;100.00;100230.50;5002886;28;20525;-76
2023/01/16 01:29:33;;;;;;;56.65;30.70;;;;;;;3.76;100.00;100357.41;5000384;28;20085;-76
2023/01/16 01:31:58;;;;;;;59.08;30.60;;;;;;;3.51;100.00;100339.41;4999167;28;20077;-74
2023/01/16 01:34:24;;;;;;;53.03;33.47;;;;;;;2.70;100.00;100253.34;4996636;28;20569;-77
2023/01/16 01:36:49;;;;;;;64.03;32.97;;;;;;;2.87;100.00;100227.03;5000715;28;20060;-76
2023/01/16 01:39:15;;;;;;;47.20;30.83;;;;;;;2.62;100.00;100189.19;5003128;28;20145;-76
2023/01/16 01:41:40;;;;;;;58.90;32.10;;;;;;;3.02;100.00;100222.31;5000879;28;20084;-76
2023/01/16 01:45:00;;;;;;;66.43;35.50;;;;;;;3.64;100.00;100338.91;5006026;28;20057;-79
2023/01/16 01:47:39;;;;;;;64.53;32.95;;;;;;;2.58;100.00;100236.59;4973644;28;20080;-77
2023/01/16 01:50:17;;;;;;;58.33;33.83;;;;;;;2.80;100.00;100240.66;4999556;28;20046;-81
2023/01/16 01:52:43;;;;;;;55.45;32.95;;;;;;;3.45;100.00;100342.72;4996686;28;20034;-79
2023/01/16 01:55:12;;;;;;;58.75;33.97;;;;;;;3.16;100.00;100331.53;5002157;28;20038;-79
2023/01/16 01:57:43;;;;;;;65.13;35.67;;;;;;;3.26;100.00;100330.09;4997910;28;20065;-79
2023/01/16 02:00:11;;;;;;;51.42;31.73;;;;;;;3.27;100.00;100334.44;5004259;28;20049;-77
2023/01/16 02:02:42;;;;;;;50.65;33.50;;;;;;;2.00;100.00;100095.97;5002697;28;20116;-76
2023/01/16 02:05:10;;;;;;;53.97;33.40;;;;;;;3.24;100.00;100311.91;5003209;28;20129;-77
2023/01/16 02:07:36;;;;;;;58.60;31.35;;;;;;;2.42;100.00;100183.47;5004454;28;20038;-78
2023/01/16 02:10:38;;;;;;;71.18;33.28;;;;;;;2.51;100.00;100207.91;5008035;28;20038;-78
2023/01/16 02:13:04;;;;;;;64.85;34.72;;;;;;;2.99;100.00;100276.63;5003387;28;20453;-75
2023/01/16 02:15:30;;;;;;;56.33;31.30;;;;;;;2.24;100.00;100171.72;5003547;28;20065;-77
2023/01/16 02:21:11;;;;;;;58.42;31.67;;;;;;;3.15;100.00;100280.53;5008490;28;20141;-76
2023/01/16 02:24:04;;;;;;;67.05;35.90;;;;;;;2.91;100.00;100286.78;4993270;28;20056;-78
2023/01/16 02:26:42;;;;;;;50.92;29.95;;;;;;;2.35;100.00;100143.56;5008328;28;20069;-75
2023/01/16 02:29:40;;;;;;;58.53;32.53;;;;;;;2.56;100.00;100197.69;5003651;28;20075;-78
2023/01/16 02:32:18;;;;;;;57.00;30.52;;;;;;;3.02;100.00;100284.50;5000876;28;20062;-77
2023/01/16 02:35:11;;;;;;;60.17;33.55;;;;;;;2.96;100.00;100282.59;5004246;28;20048;-77
2023/01/16 02:37:54;;;;;;;60.85;34.67;;;;;;;2.33;100.00;100163.34;5004842;28;20049;-80
2023/01/16 02:40:44;;;;;;;49.45;29.20;;;;;;;2.92;100.00;100274.69;5003274;28;20037;-76
2023/01/16 02:43:36;;;;;;;49.88;31.27;;;;;;;2.64;100.00;100250.56;5003657;28;20046;-79
2023/01/16 02:46:26;;;;;;;60.80;33.97;;;;;;;3.01;100.00;100253.34;4996486;28;20054;-77
2023/01/16 02:49:07;;;;;;;60.05;31.95;;;;;;;2.37;100.00;100172.97;4999615;28;20037;-76
2023/01/16 02:52:02;;;;;;;52.88;31.35;;;;;;;2.84;100.00;100256.34;5003890;28;20061;-76
2023/01/16 02:54:35;;;;;;;47.97;30.70;;;;;;;2.37;100.00;100203.16;5004065;28;20049;-78
2023/01/16 02:57:16;;;;;;;65.03;31.45;;;;;;;2.67;100.00;100239.41;5002290;28;20058;-76
2023/01/16 02:59:42;;;;;;;51.65;31.05;;;;;;;1.78;100.00;100089.25;4999088;28;20046;-78
2023/01/16 03:02:08;;;;;;;55.45;29.75;;;;;;;2.39;100.00;100214.41;5004424;28;20078;-76
2023/01/16 03:04:47;;;;;;;53.85;30.15;;;;;;;2.54;100.00;100244.25;5010861;28;20057;-76
2023/01/16 03:07:44;;;;;;;56.75;31.67;;;;;;;2.50;100.00;100239.81;5005504;28;20056;-76
2023/01/16 03:10:38;;;;;;;62.25;29.40;;;;;;;2.50;100.00;100244.09;5010321;28;20085;-78
2023/01/16 03:13:22;;;;;;;50.92;28.30;;;;;;;2.52;100.00;100232.97;4987406;28;20073;-76
2023/01/16 03:16:05;;;;;;;55.30;31.88;;;;;;;2.68;100.00;100221.34;5003917;28;20080;-76
2023/01/16 03:18:49;;;;;;;69.40;32.03;;;;;;;2.66;100.00;100229.91;5000468;28;20049;-76
2023/01/16 03:21:34;;;;;;;61.05;30.77;;;;;;;2.63;100.00;100230.69;5006671;28;20050;-77
2023/01/16 03:24:45;;;;;;;74.22;31.85;;;;;;;2.03;100.00;100152.97;5003615;28;20148;-77
2023/01/16 03:27:37;;;;;;;50.72;30.50;;;;;;;1.66;100.00;100063.91;4999790;28;20100;-78
2023/01/16 03:30:41;;;;;;;59.70;29.02;;;;;;;2.59;100.00;100213.31;5003688;28;20056;-75
2023/01/16 03:33:17;;;;;;;50.20;26.42;;;;;;;1.81;100.00;100060.91;5000513;28;20129;-77
2023/01/16 03:35:52;;;;;;;55.72;24.75;;;;;;;2.63;100.00;100203.91;5005213;28;20112;-79
2023/01/16 03:38:21;;;;;;;52.15;28.58;;;;;;;2.63;100.00;100146.94;5004351;28;20069;-76
2023/01/16 03:40:48;;;;;;;44.85;25.23;;;;;;;2.78;100.00;100162.00;5003970;28;20057;-76
2023/01/16 03:43:28;;;;;;;54.72;30.02;;;;;;;2.84;100.00;100178.59;5005090;28;20066;-78
2023/01/16 03:46:18;;;;;;;38.92;24.23;;;;;;;2.83;100.00;100161.28;5004776;28;20057;-75
2023/01/16 03:49:22;;;;;;;49.13;25.05;;;;;;;2.87;100.00;100154.50;4996808;28;20050;-76
2023/01/16 03:51:54;;;;;;;45.23;23.67;;;;;;;2.11;100.00;100022.97;4964083;28;20205;-77
2023/01/16 03:55:04;;;;;;;41.00;23.90;;;;;;;2.94;100.00;100133.09;5002515;28;20077;-77
2023/01/16 03:57:37;;;;;;;40.78;25.65;;;;;;;2.61;100.00;100095.09;4953997;28;20053;-76
2023/01/16 04:00:05;;;;;;;38.35;25.52;;;;;;;2.64;100.00;100089.09;5006493;28;20049;-76
2023/01/16 04:02:39;;;;;;;40.42;23.08;;;;;;;2.76;100.00;100107.56;5000873;28;20037;-75
2023/01/16 04:05:12;;;;;;;38.25;23.77;;;;;;;2.68;100.00;100084.06;4997487;28;20050;-76
2023/01/16 04:07:45;;;;;;;42.47;24.50;;;;;;;2.19;100.00;99999.00;5009474;28;20046;-76
2023/01/16 04:10:16;;;;;;;43.70;25.52;;;;;;;2.71;100.00;100070.28;5003072;28;20251;-76
2023/01/16 04:12:48;;;;;;;46.53;24.23;;;;;;;1.96;100.00;99946.63;5004067;28;20497;-76
2023/01/16 04:15:15;;;;;;;41.90;23.40;;;;;;;2.82;100.00;100091.31;5005801;28;20493;-78
2023/01/16 04:17:42;;;;;;;55.42;23.15;;;;;;;2.67;100.00;100061.59;4997963;28;20046;-77
2023/01/16 04:20:09;;;;;;;32.38;24.17;;;;;;;2.19;100.00;99986.06;4997337;28;20057;-78
2023/01/16 04:22:35;;;;;;;42.75;22.40;;;;;;;2.78;100.00;100103.28;5007236;28;20034;-77
2023/01/16 04:25:05;;;;;;;39.25;21.77;;;;;;;2.14;100.00;99954.91;5000746;28;20036;-78
2023/01/16 04:27:31;;;;;;;42.60;27.05;;;;;;;2.56;100.00;100037.13;5003604;28;20050;-78
2023/01/16 04:29:56;;;;;;;37.58;21.65;;;;;;;2.12;100.00;99948.78;5000566;28;20053;-78
2023/01/16 04:32:22;;;;;;;37.33;21.88;;;;;;;2.62;100.00;100032.09;5001879;28;20054;-76
2023/01/16 04:34:47;;;;;;;59.90;26.00;;;;;;;2.89;100.00;100068.19;5001342;28;20054;-78
2023/01/16 04:37:17;;;;;;;32.80;22.02;;;;;;;2.50;100.00;99998.97;5007532;28;20133;-77
2023/01/16 04:39:43;;;;;;;41.50;22.70;;;;;;;2.21;100.00;99945.59;5003764;28;20050;-76
2023/01/16 04:42:09;;;;;;;33.08;20.08;;;;;;;2.49;100.00;99994.63;5001855;28;20567;-77
2023/01/16 04:44:34;;;;;;;44.70;23.13;;;;;;;2.83;100.00;100056.78;4998963;28;20489;-76
2023/01/16 04:47:00;;;;;;;41.58;20.58;;;;;;;2.44;100.00;99970.34;5002577;28;20042;-77
2023/01/16 04:49:26;;;;;;;38.47;22.55;;;;;;;2.45;100.00;99966.03;5001752;28;20141;-75
2023/01/16 04:51:51;;;;;;;45.92;23.25;;;;;;;2.79;100.00;100023.88;5011374;28;20477;-76
2023/01/16 04:54:18;;;;;;;41.90;21.83;;;;;;;2.18;100.00;99925.69;5005061;28;20464;-77
2023/01/16 04:56:44;;;;;;;37.30;22.83;;;;;;;2.99;100.00;100056.31;5007770;28;20054;-76
2023/01/16 04:59:12;;;;;;;35.47;20.70;;;;;;;2.11;100.00;99906.53;5005572;28;20103;-77
2023/01/16 05:01:39;;;;;;;33.88;21.35;;;;;;;2.21;100.00;99941.28;5001264;28;20069;-79
2023/01/16 05:04:06;;;;;;;43.92;23.20;;;;;;;2.47;100.00;99964.38;5001578;28;20137;-77
2023/01/16 05:06:33;;;;;;;47.30;21.92;;;;;;;2.36;100.00;99958.03;5003629;28;20064;-77
2023/01/16 05:08:59;;;;;;;42.22;23.88;;;;;;;2.21;100.00;99923.16;5006021;28;20763;-78
2023/01/16 05:11:25;;;;;;;42.63;22.77;;;;;;;2.29;100.00;99962.16;5008178;28;20049;-76
2023/01/16 05:13:50;;;;;;;38.45;21.17;;;;;;;2.53;100.00;100008.56;4999443;28;20052;-76
2023/01/16 05:16:16;;;;;;;35.15;23.05;;;;;;;2.82;100.00;100057.63;5003020;28;20045;-77
2023/01/16 05:18:41;;;;;;;49.35;27.13;;;;;;;2.14;100.00;99944.53;5000948;28;20069;-76
2023/01/16 05:21:07;;;;;;;43.25;25.00;;;;;;;2.55;100.00;100019.81;4999829;28;20093;-78
2023/01/16 05:23:37;;;;;;;33.22;21.58;;;;;;;2.86;100.00;100062.06;4996285;28;20568;-78
2023/01/16 05:26:06;;;;;;;37.92;21.45;;;;;;;2.96;100.00;100071.81;4998979;28;20690;-77
2023/01/16 05:28:33;;;;;;;42.50;26.60;;;;;;;2.93;100.00;100074.34;5002796;28;20129;-77
2023/01/16 05:31:00;;;;;;;33.50;23.15;;;;;;;2.92;100.00;100081.22;5003675;28;20528;-77
2023/01/16 05:33:26;;;;;;;39.97;23.73;;;;;;;2.45;100.00;99995.38;4995407;28;20127;-78
2023/01/16 05:35:52;;;;;;;37.33;21.63;;;;;;;2.44;100.00;99993.66;5003091;28;20050;-77
2023/01/16 05:38:17;;;;;;;36.97;22.10;;;;;;;2.91;100.00;100076.88;5004573;28;20049;-79
2023/01/16 05:40:44;;;;;;;36.30;21.48;;;;;;;2.73;100.00;100048.78;5002599;28;20044;-77
2023/01/16 05:43:10;;;;;;;32.78;19.27;;;;;;;2.74;100.00;100045.38;5002494;28;20029;-78
2023/01/16 05:45:35;;;;;;;39.42;22.98;;;;;;;2.89;100.00;100069.91;4998637;28;20099;-78
2023/01/16 05:48:01;;;;;;;42.75;21.85;;;;;;;2.27;100.00;99928.50;4998179;28;20619;-79
2023/01/16 05:50:27;;;;;;;36.65;22.48;;;;;;;3.02;100.00;100063.31;4991325;28;20424;-77
2023/01/16 05:52:52;;;;;;;45.42;20.55;;;;;;;2.99;100.00;100058.91;4994219;28;20046;-76
2023/01/16 05:55:18;;;;;;;37.72;22.38;;;;;;;2.29;100.00;99936.28;4999834;28;20034;-78
2023/01/16 05:57:44;;;;;;;45.95;22.65;;;;;;;3.00;100.00;100060.69;4997781;28;20582;-78
2023/01/16 06:00:10;;;;;;;37.58;21.67;;;;;;;2.96;100.00;100044.16;4995615;28;20042;-77
2023/01/16 06:02:36;;;;;;;31.52;19.23;;;;;;;3.16;100.00;100068.00;5001786;28;20057;-79
2023/01/16 06:05:02;;;;;;;37.45;19.58;;;;;;;3.27;100.00;100057.00;4998703;28;20046;-77
2023/01/16 06:07:27;;;;;;;37.15;19.42;;;;;;;3.34;100.00;100059.75;4999318;28;20088;-77
2023/01/16 06:09:53;;;;;;;35.15;22.00;;;;;;;1.86;100.00;99829.13;4998002;28;20125;-78
2023/01/16 06:12:19;;;;;;;33.17;21.67;;;;;;;2.86;100.00;100020.59;5000554;28;20490;-79
2023/01/16 06:14:45;;;;;;;36.85;23.23;;;;;;;3.11;100.00;100048.88;5000741;28;20092;-76
2023/01/16 06:17:14;;;;;;;31.55;19.20;;;;;;;3.13;100.00;100046.28;5000140;28;20145;-78
2023/01/16 06:19:40;;;;;;;30.52;18.27;;;;;;;2.48;100.00;99930.75;4996779;28;20034;-76
2023/01/16 06:22:05;;;;;;;33.90;18.55;;;;;;;3.32;100.00;100068.34;5002272;28;20360;-77
2023/01/16 06:24:30;;;;;;;28.70;17.45;;;;;;;2.68;100.00;99969.22;4997546;28;20045;-79
2023/01/16 06:26:56;;;;;;;31.88;18.95;;;;;;;3.26;100.00;100061.31;5001232;28;20049;-76
2023/01/16 06:29:21;;;;;;;31.25;16.42;;;;;;;3.37;100.00;100056.34;5001306;28;20049;-77
2023/01/16 06:31:47;;;;;;;26.02;15.43;;;;;;;3.13;100.00;100004.81;4996155;28;20744;-77
2023/01/16 06:34:12;;;;;;;29.30;15.38;;;;;;;2.72;100.00;99946.00;5002929;28;20053;-76
2023/01/16 06:36:38;;;;;;;29.50;16.10;;;;;;;3.19;100.00;100032.63;4996508;28;20464;-75
2023/01/16 06:39:03;;;;;;;27.20;17.77;;;;;;;3.36;100.00;100049.44;4990828;28;20053;-74
2023/01/16 06:41:29;;;;;;;35.67;18.13;;;;;;;2.87;100.00;99962.75;4995480;28;20125;-74
2023/01/16 06:43:54;;;;;;;32.53;18.17;;;;;;;3.28;100.00;100030.25;5014487;28;20077;-76
2023/01/16 06:46:19;;;;;;;35.38;18.73;;;;;;;2.70;100.00;99933.88;4996290;28;20038;-74
2023/01/16 06:48:45;;;;;;;37.58;19.00;;;;;;;3.52;100.00;100053.25;4993241;28;20493;-76
2023/01/16 06:51:11;;;;;;;27.90;18.40;;;;;;;2.82;100.00;99933.28;4997964;28;20514;-76
2023/01/16 06:53:37;;;;;;;25.45;15.95;;;;;;;3.26;100.00;99996.50;5000556;28;20096;-77
2023/01/16 06:56:02;;;;;;;26.25;17.92;;;;;;;3.49;100.00;100025.53;5005501;28;20117;-77
2023/01/16 06:58:28;;;;;;;31.70;16.83;;;;;;;3.81;100.00;100079.84;5005653;28;20041;-78
2023/01/16 07:00:55;;;;;;;30.52;17.92;;;;;;;3.32;100.00;99991.44;5001073;28;20038;-78
2023/01/16 07:03:21;;;;;;;32.80;18.02;;;;;;;3.87;100.00;100074.78;5005028;28;20074;-78
2023/01/16 07:05:47;;;;;;;28.40;17.75;;;;;;;3.78;100.00;100059.03;5003553;28;20077;-78
2023/01/16 07:08:12;;;;;;;23.67;16.55;;;;;;;3.89;100.00;100067.91;5007189;28;20195;-76
2023/01/16 07:10:38;;;;;;;25.73;15.20;;;;;;;3.96;100.00;100082.78;5006967;28;20061;-78
2023/01/16 07:13:03;;;;;;;32.13;18.90;;;;;;;4.03;100.00;100081.19;5013639;28;20125;-77
2023/01/16 07:24:00;;;;;;;29.90;19.08;;;;;;;3.65;100.00;99977.44;4982794;28;20145;-75
2023/01/16 07:26:27;;;;;;;57.25;17.77;;;;;;;3.50;100.00;99930.44;5005892;28;20100;-76
2023/01/16 07:28:54;;;;;;;30.38;17.63;;;;;;;4.08;100.00;100018.97;5005544;28;20080;-75
2023/01/16 07:31:21;;;;;;;38.28;17.45;;;;;;;3.84;100.00;99965.75;5006852;28;20042;-78
2023/01/16 07:33:46;;;;;;;29.10;18.50;;;;;;;4.46;100.00;100070.78;5001114;28;20068;-78
2023/01/16 07:36:12;;;;;;;42.28;20.33;;;;;;;4.48;100.00;100056.97;5001549;28;22354;-74
2023/01/16 07:38:37;;;;;;;28.08;17.95;;;;;;;4.74;100.00;100072.16;4994786;28;20061;-76
2023/01/16 07:41:03;;;;;;;45.80;20.30;;;;;;;4.58;100.00;100063.22;5003400;28;20882;-78
2023/01/16 07:43:28;;;;;;;33.35;20.30;;;;;;;4.50;100.00;100029.31;5024288;28;20323;-76
2023/01/16 07:45:54;;;;;;;37.60;20.00;;;;;;;4.74;100.00;100093.84;5009789;28;20026;-76
2023/01/16 07:48:20;;;;;;;27.48;16.80;;;;;;;3.70;100.00;99915.25;5010099;28;20049;-74
2023/01/16 07:50:50;;;;;;;24.27;18.08;;;;;;;4.79;100.00;100092.19;5008393;28;20152;-73
2023/01/16 07:53:21;;;;;;;27.08;19.25;;;;;;;4.37;100.00;100001.34;5002855;28;20054;-76
2023/01/16 07:55:47;;;;;;;33.63;18.30;;;;;;;4.23;100.00;99981.19;5004928;28;20056;-75
2023/01/16 07:58:12;;;;;;;26.63;16.17;;;;;;;4.51;100.00;100010.25;5007165;28;20037;-75
2023/01/16 08:00:37;;;;;;;39.22;17.48;;;;;;;4.59;100.00;100042.47;5006603;28;20053;-74
2023/01/16 08:03:03;;;;;;;27.50;19.33;;;;;;;5.01;100.00;100113.34;4995232;28;20042;-75
2023/01/16 08:05:28;;;;;;;28.10;17.70;;;;;;;5.10;100.00;100107.44;4997160;28;20053;-78
2023/01/16 08:07:54;;;;;;;30.48;19.00;;;;;;;4.25;100.00;99981.22;5002864;28;20041;-77
2023/01/16 08:10:20;;;;;;;22.50;16.00;;;;;;;5.26;100.00;100138.94;4999085;28;20041;-76
2023/01/16 08:12:45;;;;;;;27.35;17.10;;;;;;;4.64;100.00;100035.63;5014189;28;20057;-74
2023/01/16 08:15:11;;;;;;;27.02;15.23;;;;;;;5.05;100.00;100182.78;5003798;28;20147;-76
2023/01/16 08:17:39;;;;;;;23.67;16.45;;;;;;;4.61;100.00;100115.22;4991448;28;20062;-74
2023/01/16 08:20:05;;;;;;;28.05;16.20;;;;;;;5.21;100.00;100202.16;5007126;28;20121;-75
2023/01/16 08:22:31;;;;;;;27.73;16.38;;;;;;;4.64;100.00;100120.50;5009319;28;20136;-76
2023/01/16 08:24:56;;;;;;;26.50;14.07;;;;;;;5.39;100.00;100199.00;5004273;28;20029;-75
2023/01/16 08:27:21;;;;;;;24.83;14.02;;;;;;;4.48;100.00;100127.13;5001992;28;20576;-75
2023/01/16 08:29:47;;;;;;;30.23;16.67;;;;;;;5.27;100.00;100197.94;5002442;28;20409;-75
2023/01/16 08:32:12;;;;;;;25.70;15.57;;;;;;;4.81;100.00;100100.03;5000365;28;20392;-76
2023/01/16 08:34:38;;;;;;;26.02;17.00;;;;;;;5.77;100.00;100230.88;5006333;28;20025;-76
2023/01/16 08:37:04;;;;;;;22.70;14.48;;;;;;;5.17;100.00;100229.81;5004689;28;20025;-77
2023/01/16 08:39:29;;;;;;;24.15;15.40;;;;;;;5.00;100.00;100154.09;5005210;28;20050;-77
2023/01/16 08:52:58;;;;;;;26.65;16.33;;;;;;;6.15;100.00;100198.50;4991551;28;20067;-77
2023/01/16 08:55:24;;;;;;;24.75;16.70;;;;;;;6.33;100.00;100203.97;4999806;28;20521;-76
2023/01/16 08:57:49;;;;;;;26.55;14.82;;;;;;;4.93;100.00;100113.22;5001385;28;20050;-75
2023/01/16 09:00:15;;;;;;;29.23;17.17;;;;;;;5.76;100.00;100153.66;5006687;28;20111;-75
2023/01/16 09:02:41;;;;;;;27.15;16.50;;;;;;;6.04;100.00;100172.28;4999587;28;20388;-74
2023/01/16 09:05:07;;;;;;;22.40;16.10;;;;;;;6.11;100.00;100150.69;4999323;28;20038;-75
2023/01/16 09:07:32;;;;;;;31.80;15.57;;;;;;;6.15;100.00;100160.28;5014742;28;20072;-76
2023/01/16 09:09:58;;;;;;;23.75;17.08;;;;;;;6.21;100.00;100170.81;5003142;28;20541;-77
2023/01/16 09:15:08;;;;;;;18.13;12.63;;;;;;;5.82;100.00;100083.41;5004197;28;20065;-77
2023/01/16 09:17:33;;;;;;;27.63;14.20;;;;;;;5.62;100.00;100058.84;4996843;28;20396;-77
2023/01/16 09:19:59;;;;;;;33.97;16.75;;;;;;;5.48;100.00;100187.03;5004189;28;20121;-77
2023/01/16 09:22:26;;;;;;;28.02;15.60;;;;;;;5.43;100.00;100079.41;5006229;28;20128;-76
2023/01/16 09:24:52;;;;;;;20.80;15.15;;;;;;;5.71;100.00;100090.19;5001370;28;20048;-77
2023/01/16 09:27:18;;;;;;;21.48;15.13;;;;;;;5.93;100.00;100198.16;5011451;28;20049;-77
2023/01/16 09:29:44;;;;;;;26.65;20.88;;;;;;;5.73;100.00;100200.44;5006185;28;20516;-75
2023/01/16 09:32:09;;;;;;;26.50;16.13;;;;;;;6.15;100.00;100141.19;4997087;28;20085;-76
2023/01/16 09:34:36;;;;;;;25.50;16.75;;;;;;;5.97;100.00;100080.22;5008669;28;20076;-75
2023/01/16 09:37:02;;;;;;;29.10;18.35;;;;;;;5.64;100.00;100097.06;5007667;28;20064;-77
2023/01/16 09:39:28;;;;;;;26.48;18.08;;;;;;;5.79;100.00;100186.66;5002778;28;20137;-78
2023/01/16 09:44:51;;;;;;;23.83;18.65;;;;;;;5.28;100.00;100040.13;5005436;28;20469;-76
2023/01/16 09:47:23;;;;;;;20.67;16.67;;;;;;;4.98;100.00;100033.59;5010250;28;20239;-75
2023/01/16 09:49:55;;;;;;;23.25;16.60;;;;;;;6.19;100.00;100146.47;5004710;28;20046;-77
2023/01/16 09:58:37;;;;;;;19.45;13.48;;;;;;;6.88;100.00;100151.63;4998053;28;20103;-76
2023/01/16 10:01:16;;;;;;;17.90;11.02;;;;;;;6.86;100.00;100148.13;5006450;28;20473;-75
2023/01/16 10:03:42;;;;;;;17.52;12.40;;;;;;;6.66;100.00;100069.72;5001458;28;20060;-75
2023/01/16 10:06:46;;;;;;;38.40;16.25;;;;;;;6.94;100.00;100173.44;5004295;28;20128;-76
2023/01/16 10:09:24;;;;;;;16.30;10.82;;;;;;;6.93;100.00;100148.22;4997891;28;20088;-78
2023/01/16 10:12:03;;;;;;;30.42;21.05;;;;;;;6.95;100.00;100162.16;5020847;28;21019;-75
2023/01/16 10:14:52;;;;;;;20.73;15.07;;;;;;;6.95;100.00;100150.84;4996759;28;20621;-75
2023/01/16 10:17:30;;;;;;;18.33;11.98;;;;;;;6.84;100.00;100148.13;5007229;28;20053;-77
2023/01/16 10:20:31;;;;;;;23.88;16.23;;;;;;;6.51;100.00;100156.44;5012397;28;20132;-76
2023/01/16 10:23:02;;;;;;;20.50;13.80;;;;;;;7.02;100.00;100152.63;5000770;28;20049;-78
2023/01/16 10:25:44;;;;;;;18.05;12.38;;;;;;;6.47;100.00;100025.19;4999086;28;20421;-75
2023/01/16 10:28:19;;;;;;;19.75;14.82;;;;;;;7.15;100.00;100140.59;5007052;28;20103;-75
2023/01/16 10:30:52;;;;;;;22.92;16.77;;;;;;;7.06;100.00;100107.47;5010167;28;20053;-77
2023/01/16 10:33:46;;;;;;;36.97;17.33;;;;;;;7.43;100.00;100141.72;5009170;28;20080;-77
2023/01/16 10:36:16;;;;;;;24.10;15.88;;;;;;;6.88;100.00;100027.34;5006493;28;20099;-79
2023/01/16 10:38:54;;;;;;;21.38;15.43;;;;;;;7.57;100.00;100134.88;5010216;28;20042;-79
2023/01/16 10:50:21;;;;;;;21.33;15.75;;;;;;;7.59;100.00;100101.81;5008900;28;20061;-77
2023/01/16 10:52:48;;;;;;;24.38;16.10;;;;;;;6.79;100.00;99974.22;5005788;28;20046;-77
2023/01/16 10:55:15;;;;;;;27.67;17.17;;;;;;;7.53;100.00;100090.47;5008210;28;20029;-77
2023/01/16 10:57:49;;;;;;;19.77;16.90;;;;;;;6.92;100.00;99965.63;5016532;28;20052;-78
2023/01/16 11:00:24;;;;;;;28.80;18.80;;;;;;;7.61;100.00;100088.78;5000084;28;20046;-77
2023/01/16 11:02:52;;;;;;;25.08;15.77;;;;;;;7.21;100.00;100011.91;4999805;28;20042;-77
2023/01/16 11:05:22;;;;;;;25.58;18.63;;;;;;;6.95;100.00;99966.53;5008993;28;20092;-79
2023/01/16 11:07:47;;;;;;;21.40;16.60;;;;;;;6.46;100.00;99869.69;5009188;28;20364;-79
2023/01/16 11:10:15;;;;;;;20.50;15.93;;;;;;;7.70;100.00;100080.13;5006749;28;20049;-78
2023/01/16 11:18:28;;;;;;;23.75;16.63;;;;;;;7.58;100.00;100042.63;5002826;28;20061;-80
2023/01/16 11:20:55;;;;;;;20.95;16.60;;;;;;;7.83;100.00;100066.28;5001889;28;20074;-79
2023/01/16 11:23:22;;;;;;;26.70;17.08;;;;;;;7.71;100.00;100071.44;5004172;28;20057;-80
2023/01/16 11:25:51;;;;;;;25.50;17.95;;;;;;;6.24;100.00;99941.59;5010547;28;20077;-78
2023/01/16 11:28:28;;;;;;;29.17;19.15;;;;;;;7.07;100.00;100064.00;5006572;28;20050;-79
2023/01/16 11:31:03;;;;;;;22.77;17.77;;;;;;;7.44;100.00;100056.44;5003071;28;20041;-79
2023/01/16 11:33:40;;;;;;;24.52;18.73;;;;;;;7.53;100.00;100053.91;5007617;28;20049;-78
2023/01/16 11:36:07;;;;;;;30.27;21.35;;;;;;;7.25;100.00;99982.38;5001823;28;20136;-78
2023/01/16 11:38:37;;;;;;;33.15;22.42;;;;;;;6.80;100.00;99916.88;5006850;28;20057;-79
2023/01/16 11:41:07;;;;;;;35.58;25.40;;;;;;;6.91;100.00;99910.00;5010763;28;20037;-80
2023/01/16 11:46:27;;;;;;;36.22;25.23;;;;;;;7.53;100.00;100015.63;5007094;28;20687;-78
2023/01/16 11:48:57;;;;;;;33.28;21.42;;;;;;;6.76;100.00;99923.78;5007539;28;20137;-81
2023/01/16 11:51:36;;;;;;;25.95;21.02;;;;;;;7.44;100.00;100010.34;5008464;28;20470;-81
2023/01/16 11:54:03;;;;;;;28.15;20.02;;;;;;;7.26;100.00;99960.63;5001925;28;20054;-75
2023/01/16 11:56:49;;;;;;;37.15;22.67;;;;;;;7.82;100.00;100012.31;5005774;28;20057;-75
2023/01/16 11:59:41;;;;;;;33.67;19.48;;;;;;;7.91;100.00;100012.31;5011952;28;20053;-75
2023/01/16 12:02:19;;;;;;;33.78;19.85;;;;;;;8.00;100.00;100012.34;5004755;28;20058;-75
2023/01/16 12:08:06;;;;;;;33.03;21.70;;;;;;;7.72;100.00;99993.09;5006876;28;20580;-78
2023/01/16 12:11:10;;;;;;;34.40;20.85;;;;;;;7.68;100.00;99988.72;5003339;28;20102;-78
2023/01/16 12:16:53;;;;;;;29.45;18.83;;;;;;;7.64;100.00;99981.75;5014980;28;20547;-79
2023/01/16 12:19:43;;;;;;;26.60;19.50;;;;;;;7.59;100.00;99976.50;4992254;28;20070;-78
2023/01/16 12:22:14;;;;;;;27.25;19.17;;;;;;;7.60;100.00;99999.13;4996126;28;20069;-79
2023/01/16 12:24:59;;;;;;;21.98;17.48;;;;;;;7.71;100.00;100001.78;5006271;28;20042;-77
2023/01/16 12:27:45;;;;;;;26.88;18.70;;;;;;;7.88;100.00;100008.84;5010335;28;20473;-79